createdAt,value
2022-11-09T00:01:30.503Z,16.10
2022-11-09T00:04:02.875Z,16.10
2022-11-09T00:06:34.501Z,16.10
2022-11-09T00:09:08.035Z,16.10
2022-11-09T00:11:40.029Z,16.10
2022-11-09T00:14:16.034Z,16.10
2022-11-09T00:16:46.495Z,16.10
2022-11-09T00:19:16.866Z,16.00
2022-11-09T00:21:47.311Z,15.90
2022-11-09T00:24:17.099Z,16.00
2022-11-09T00:26:47.609Z,16.00
2022-11-09T00:29:17.341Z,16.00
2022-11-09T00:31:47.723Z,16.00
2022-11-09T00:34:18.187Z,15.90
2022-11-09T00:36:48.102Z,16.00
2022-11-09T00:39:18.640Z,16.00
2022-11-09T00:41:48.325Z,16.00
2022-11-09T00:44:18.776Z,16.00
2022-11-09T00:46:48.505Z,16.10
2022-11-09T00:49:18.783Z,16.10
2022-11-09T00:51:49.167Z,16.10
2022-11-09T00:54:19.623Z,16.00
2022-11-09T00:56:49.269Z,16.00
2022-11-09T00:59:19.782Z,16.00
2022-11-09T01:01:49.466Z,16.00
2022-11-09T01:04:19.860Z,16.00
2022-11-09T01:06:50.323Z,16.00
2022-11-09T01:09:20.072Z,16.10
2022-11-09T01:11:50.398Z,16.10
2022-11-09T01:14:20.879Z,16.00
2022-11-09T01:16:50.615Z,16.10
2022-11-09T01:19:21.071Z,16.10
2022-11-09T01:21:50.842Z,16.10
2022-11-09T01:24:21.176Z,16.20
2022-11-09T01:26:50.993Z,16.30
2022-11-09T01:29:21.410Z,16.40
2022-11-09T01:31:51.787Z,16.50
2022-11-09T01:34:22.384Z,16.50
2022-11-09T01:36:54.460Z,16.60
2022-11-09T01:39:25.035Z,16.70
2022-11-09T01:41:54.702Z,16.80
2022-11-09T01:44:25.134Z,16.80
2022-11-09T01:46:57.576Z,17.00
2022-11-09T01:49:42.917Z,17.00
2022-11-09T01:52:21.789Z,17.10
2022-11-09T01:55:05.755Z,17.20
2022-11-09T01:57:44.052Z,17.30
2022-11-09T02:00:18.660Z,17.40
2022-11-09T02:02:59.068Z,17.50
2022-11-09T02:05:30.821Z,17.60
2022-11-09T02:08:03.890Z,17.80
2022-11-09T02:10:49.587Z,17.90
2022-11-09T02:13:24.202Z,18.10
2022-11-09T02:15:55.251Z,18.10
2022-11-09T02:18:25.730Z,18.00
2022-11-09T02:20:59.205Z,18.00
2022-11-09T02:23:31.077Z,18.00
2022-11-09T02:26:11.098Z,18.00
2022-11-09T02:28:43.127Z,18.10
2022-11-09T02:31:16.525Z,18.00
2022-11-09T02:33:58.108Z,18.10
2022-11-09T02:36:28.828Z,18.10
2022-11-09T02:39:01.017Z,18.20
2022-11-09T02:41:33.166Z,18.30
2022-11-09T02:44:04.257Z,18.30
2022-11-09T02:46:37.913Z,18.30
2022-11-09T02:49:08.659Z,18.30
2022-11-09T02:51:39.241Z,18.30
2022-11-09T02:54:09.730Z,18.30
2022-11-09T02:56:39.734Z,18.40
2022-11-09T02:59:09.478Z,18.50
2022-11-09T03:01:39.508Z,18.50
2022-11-09T03:04:09.329Z,18.60
2022-11-09T03:06:39.348Z,18.60
2022-11-09T03:09:12.302Z,18.60
2022-11-09T03:11:43.723Z,18.70
2022-11-09T03:14:14.339Z,18.80
2022-11-09T03:16:49.997Z,18.90
2022-11-09T03:19:21.009Z,19.00
2022-11-09T03:21:50.913Z,19.00
2022-11-09T03:24:20.797Z,19.10
2022-11-09T03:26:50.706Z,19.20
2022-11-09T03:29:20.594Z,19.30
2022-11-09T03:31:50.429Z,19.40
2022-11-09T03:34:20.320Z,19.50
2022-11-09T03:36:50.224Z,19.60
2022-11-09T03:39:20.225Z,19.70
2022-11-09T03:41:50.174Z,19.80
2022-11-09T03:44:21.739Z,19.80
2022-11-09T03:46:51.672Z,20.00
2022-11-09T03:49:21.776Z,20.00
2022-11-09T03:51:52.370Z,20.10
2022-11-09T03:54:22.302Z,20.20
2022-11-09T03:56:52.175Z,20.30
2022-11-09T03:59:22.204Z,20.40
2022-11-09T04:01:52.111Z,20.50
2022-11-09T04:04:22.478Z,20.60
2022-11-09T04:06:52.449Z,20.70
2022-11-09T04:09:22.750Z,20.60
2022-11-09T04:11:52.659Z,20.60
2022-11-09T04:14:22.823Z,20.70
2022-11-09T04:16:52.627Z,20.80
2022-11-09T04:19:22.933Z,20.90
2022-11-09T04:21:52.862Z,21.00
2022-11-09T04:24:23.095Z,21.00
2022-11-09T04:26:53.142Z,21.00
2022-11-09T04:29:23.533Z,21.00
2022-11-09T04:31:53.873Z,21.00
2022-11-09T04:34:23.805Z,21.00
2022-11-09T04:36:53.845Z,21.10
2022-11-09T04:39:23.939Z,21.10
2022-11-09T04:41:53.318Z,21.20
2022-11-09T04:44:23.198Z,21.30
2022-11-09T04:46:53.315Z,21.40
2022-11-09T04:49:22.714Z,21.40
2022-11-09T04:51:52.940Z,21.50
2022-11-09T04:54:23.042Z,21.60
2022-11-09T04:56:52.815Z,21.70
2022-11-09T04:59:23.454Z,21.80
2022-11-09T05:01:53.399Z,21.70
2022-11-09T05:04:23.333Z,21.80
2022-11-09T05:06:54.568Z,21.90
2022-11-09T05:09:24.606Z,21.90
2022-11-09T05:11:54.608Z,22.00
2022-11-09T05:14:24.985Z,22.20
2022-11-09T05:16:55.165Z,22.10
2022-11-09T05:19:28.275Z,22.10
2022-11-09T05:21:58.208Z,22.30
2022-11-09T05:24:28.092Z,22.40
2022-11-09T05:26:59.061Z,22.40
2022-11-09T05:29:29.051Z,22.50
2022-11-09T05:31:59.310Z,22.60
2022-11-09T05:34:29.223Z,22.60
2022-11-09T05:37:03.264Z,22.60
2022-11-09T05:39:34.483Z,22.70
2022-11-09T05:42:04.515Z,22.80
2022-11-09T05:44:34.245Z,22.90
2022-11-09T05:47:04.207Z,22.80
2022-11-09T05:49:34.494Z,22.60
2022-11-09T05:52:04.887Z,22.50
2022-11-09T05:54:35.011Z,22.40
2022-11-09T05:57:04.424Z,22.30
2022-11-09T05:59:34.193Z,22.30
2022-11-09T06:02:04.160Z,22.30
2022-11-09T06:04:34.100Z,22.20
2022-11-09T06:07:04.324Z,22.20
2022-11-09T06:09:34.314Z,22.20
2022-11-09T06:12:04.324Z,22.20
2022-11-09T06:14:33.630Z,22.10
2022-11-09T06:17:03.652Z,22.10
2022-11-09T06:19:33.715Z,22.20
2022-11-09T06:22:03.588Z,22.30
2022-11-09T06:24:35.482Z,22.50
2022-11-09T06:27:07.115Z,22.50
2022-11-09T06:29:37.230Z,22.70
2022-11-09T06:32:06.538Z,22.80
2022-11-09T06:34:36.610Z,22.90
2022-11-09T06:37:06.138Z,22.90
2022-11-09T06:39:36.073Z,23.00
2022-11-09T06:42:06.357Z,23.10
2022-11-09T06:44:36.567Z,23.10
2022-11-09T06:47:06.595Z,23.10
2022-11-09T06:49:35.956Z,23.20
2022-11-09T06:52:06.079Z,23.20
2022-11-09T06:54:36.277Z,23.40
2022-11-09T06:57:06.347Z,23.50
2022-11-09T06:59:36.774Z,23.50
2022-11-09T07:02:06.795Z,23.50
2022-11-09T07:04:36.042Z,23.50
2022-11-09T07:07:06.629Z,23.50
2022-11-09T07:09:36.650Z,23.40
2022-11-09T07:12:06.133Z,23.20
2022-11-09T07:14:35.983Z,23.20
2022-11-09T07:17:06.924Z,23.10
2022-11-09T07:19:36.865Z,23.00
2022-11-09T07:22:06.761Z,23.00
2022-11-09T07:24:36.780Z,23.00
2022-11-09T07:27:06.731Z,23.10
2022-11-09T07:29:36.645Z,23.00
2022-11-09T07:32:06.912Z,23.10
2022-11-09T07:34:36.834Z,23.10
2022-11-09T07:37:06.773Z,23.20
2022-11-09T07:39:36.101Z,23.30
2022-11-09T07:42:06.133Z,23.50
2022-11-09T07:44:35.453Z,23.60
2022-11-09T07:47:05.421Z,23.60
2022-11-09T07:49:35.618Z,23.60
2022-11-09T07:52:05.602Z,23.50
2022-11-09T07:54:34.983Z,23.60
2022-11-09T07:57:05.445Z,23.60
2022-11-09T07:59:35.867Z,23.60
2022-11-09T08:02:05.714Z,23.60
2022-11-09T08:04:35.638Z,23.80
2022-11-09T08:07:05.778Z,23.70
2022-11-09T08:09:35.791Z,23.70
2022-11-09T08:12:06.386Z,23.70
2022-11-09T08:14:36.596Z,23.70
2022-11-09T08:17:06.541Z,23.90
2022-11-09T08:19:35.885Z,23.90
2022-11-09T08:22:06.024Z,23.90
2022-11-09T08:24:35.926Z,24.00
2022-11-09T08:27:05.967Z,23.90
2022-11-09T08:29:35.343Z,23.90
2022-11-09T08:32:05.448Z,24.00
2022-11-09T08:34:38.382Z,24.00
2022-11-09T08:37:07.670Z,24.10
2022-11-09T08:39:38.079Z,24.10
2022-11-09T08:42:08.793Z,24.20
2022-11-09T08:44:39.338Z,24.20
2022-11-09T08:47:10.919Z,24.20
2022-11-09T08:49:41.443Z,24.20
2022-11-09T08:52:12.259Z,24.20
2022-11-09T08:54:43.020Z,24.10
2022-11-09T08:57:13.747Z,24.20
2022-11-09T08:59:45.475Z,24.10
2022-11-09T09:02:17.255Z,24.20
2022-11-09T09:04:47.891Z,24.10
2022-11-09T09:07:18.919Z,24.00
2022-11-09T09:09:49.443Z,24.00
2022-11-09T09:12:20.356Z,23.90
2022-11-09T09:14:50.858Z,23.90
2022-11-09T09:17:21.365Z,23.90
2022-11-09T09:19:51.920Z,23.90
2022-11-09T09:22:22.742Z,23.80
2022-11-09T09:24:53.304Z,23.80
2022-11-09T09:27:23.808Z,23.70
2022-11-09T09:29:54.234Z,23.60
2022-11-09T09:32:24.781Z,23.60
2022-11-09T09:34:55.131Z,23.50
2022-11-09T09:37:25.688Z,23.40
2022-11-09T09:39:56.099Z,23.40
2022-11-09T09:42:37.396Z,23.30
2022-11-09T09:45:20.768Z,23.30
2022-11-09T09:47:57.343Z,23.20
2022-11-09T09:50:34.048Z,23.10
2022-11-09T09:53:26.349Z,23.10
2022-11-09T09:56:06.179Z,23.00
2022-11-09T09:58:41.021Z,22.90
2022-11-09T10:01:24.025Z,22.90
2022-11-09T10:03:54.711Z,22.80
2022-11-09T10:06:52.417Z,22.70
2022-11-09T10:09:43.163Z,22.70
2022-11-09T10:12:36.492Z,22.50
2022-11-09T10:15:33.721Z,22.50
2022-11-09T10:18:23.050Z,22.40
2022-11-09T10:21:24.262Z,22.40
2022-11-09T10:24:10.586Z,22.40
2022-11-09T10:26:57.649Z,22.30
2022-11-09T10:29:38.597Z,22.30
2022-11-09T10:32:26.555Z,22.20
2022-11-09T10:35:05.265Z,22.20
2022-11-09T10:37:45.315Z,22.20
2022-11-09T10:40:41.156Z,22.10
2022-11-09T10:43:16.568Z,22.00
2022-11-09T10:45:49.504Z,22.00
2022-11-09T10:48:36.108Z,21.90
2022-11-09T10:51:07.640Z,21.90
2022-11-09T10:53:38.210Z,21.80
2022-11-09T10:56:23.953Z,21.80
2022-11-09T10:58:57.607Z,21.80
2022-11-09T11:01:38.656Z,21.70
2022-11-09T11:04:27.798Z,21.60
2022-11-09T11:06:58.450Z,21.60
2022-11-09T11:09:31.697Z,21.50
2022-11-09T11:12:18.908Z,21.50
2022-11-09T11:14:49.898Z,21.40
2022-11-09T11:17:31.606Z,21.40
2022-11-09T11:20:37.790Z,21.30
2022-11-09T11:23:18.774Z,21.20
2022-11-09T11:26:03.470Z,21.20
2022-11-09T11:28:54.295Z,21.10
2022-11-09T11:31:25.500Z,21.10
2022-11-09T11:33:55.892Z,21.00
2022-11-09T11:36:51.536Z,20.90
2022-11-09T11:39:59.974Z,20.90
2022-11-09T11:42:55.631Z,20.80
2022-11-09T11:45:41.066Z,20.80
2022-11-09T11:48:50.401Z,20.80
2022-11-09T11:51:41.963Z,20.60
2022-11-09T11:54:51.154Z,20.60
2022-11-09T11:57:40.874Z,20.50
2022-11-09T12:00:18.010Z,20.60
2022-11-09T12:03:21.576Z,20.60
2022-11-09T12:06:20.005Z,20.50
2022-11-09T12:09:21.899Z,20.50
2022-11-09T12:12:17.499Z,20.50
2022-11-09T12:15:21.727Z,20.40
2022-11-09T12:18:13.718Z,20.40
2022-11-09T12:21:22.420Z,20.50
2022-11-09T12:24:22.812Z,20.50
2022-11-09T12:27:30.855Z,20.40
2022-11-09T12:30:23.928Z,20.40
2022-11-09T12:33:02.619Z,20.40
2022-11-09T12:35:42.292Z,20.50
2022-11-09T12:38:26.552Z,20.50
2022-11-09T12:41:07.378Z,20.50
2022-11-09T12:44:06.067Z,20.60
2022-11-09T12:46:41.479Z,20.60
2022-11-09T12:49:44.179Z,20.60
2022-11-09T12:52:17.802Z,20.60
2022-11-09T12:54:51.221Z,20.60
2022-11-09T12:57:31.880Z,20.50
2022-11-09T13:00:03.753Z,20.60
2022-11-09T13:02:55.522Z,20.60
2022-11-09T13:05:37.942Z,20.50
2022-11-09T13:08:11.353Z,20.50
2022-11-09T13:10:43.665Z,20.50
2022-11-09T13:13:28.683Z,20.40
2022-11-09T13:16:35.488Z,20.30
2022-11-09T13:19:06.683Z,20.30
2022-11-09T13:21:39.298Z,20.30
2022-11-09T13:24:48.510Z,20.40
2022-11-09T13:27:52.453Z,20.30
2022-11-09T13:30:44.284Z,20.40
2022-11-09T13:33:23.040Z,20.40
2022-11-09T13:36:19.188Z,20.40
2022-11-09T13:39:09.374Z,20.50
2022-11-09T13:41:43.820Z,20.40
2022-11-09T13:44:31.316Z,20.30
2022-11-09T13:47:04.841Z,20.20
2022-11-09T13:49:45.465Z,20.20
2022-11-09T13:52:48.193Z,20.10
2022-11-09T13:55:42.627Z,20.10
2022-11-09T13:58:37.122Z,20.00
2022-11-09T14:01:08.932Z,20.00
2022-11-09T14:03:40.604Z,20.00
2022-11-09T14:06:15.756Z,20.00
2022-11-09T14:08:46.665Z,20.00
2022-11-09T14:11:42.653Z,19.90
2022-11-09T14:14:49.251Z,19.90
2022-11-09T14:17:47.883Z,19.90
2022-11-09T14:20:43.178Z,19.90
2022-11-09T14:23:26.212Z,19.80
2022-11-09T14:25:57.741Z,19.80
2022-11-09T14:28:32.267Z,19.80
2022-11-09T14:31:03.046Z,19.80
2022-11-09T14:33:37.533Z,19.70
2022-11-09T14:36:08.558Z,19.70
2022-11-09T14:38:46.706Z,19.70
2022-11-09T14:41:25.343Z,19.70
2022-11-09T14:43:57.937Z,19.70
2022-11-09T14:46:32.068Z,19.70
2022-11-09T14:49:05.041Z,19.60
2022-11-09T14:51:41.078Z,19.60
2022-11-09T14:54:16.509Z,19.60
2022-11-09T14:56:47.661Z,19.50
2022-11-09T14:59:22.618Z,19.50
2022-11-09T15:02:03.721Z,19.50
2022-11-09T15:04:52.894Z,19.50
2022-11-09T15:07:27.610Z,19.50
2022-11-09T15:10:01.968Z,19.40
2022-11-09T15:12:34.059Z,19.40
2022-11-09T15:15:08.543Z,19.40
2022-11-09T15:17:42.252Z,19.50
2022-11-09T15:20:31.867Z,19.40
2022-11-09T15:23:09.401Z,19.40
2022-11-09T15:25:58.056Z,19.50
2022-11-09T15:28:31.275Z,19.60
2022-11-09T15:31:15.456Z,19.50
2022-11-09T15:33:54.552Z,19.60
2022-11-09T15:36:39.792Z,19.60
2022-11-09T15:39:21.941Z,19.60
2022-11-09T15:41:52.573Z,19.50
2022-11-09T15:44:23.499Z,19.50
2022-11-09T15:46:56.910Z,19.50
2022-11-09T15:49:31.151Z,19.40
2022-11-09T15:52:01.641Z,19.30
2022-11-09T15:54:32.155Z,19.10
2022-11-09T15:57:02.608Z,19.10
2022-11-09T15:59:35.185Z,19.00
2022-11-09T16:02:06.551Z,19.00
2022-11-09T16:04:37.178Z,19.00
2022-11-09T16:07:07.949Z,19.00
2022-11-09T16:09:42.812Z,18.90
2022-11-09T16:12:13.856Z,18.90
2022-11-09T16:14:44.354Z,18.90
2022-11-09T16:17:14.896Z,18.90
2022-11-09T16:19:45.445Z,18.90
2022-11-09T16:22:15.935Z,18.90
2022-11-09T16:24:49.069Z,18.90
2022-11-09T16:27:47.867Z,18.90
2022-11-09T16:30:12.933Z,18.80
2022-11-09T16:32:43.454Z,18.80
2022-11-09T16:35:29.677Z,18.80
2022-11-09T16:38:02.244Z,18.80
2022-11-09T16:40:33.876Z,18.80
2022-11-09T16:43:04.588Z,18.70
2022-11-09T16:45:36.401Z,18.70
2022-11-09T16:48:12.741Z,18.60
2022-11-09T16:50:43.257Z,18.60
2022-11-09T16:53:14.447Z,18.70
2022-11-09T16:55:44.793Z,18.60
2022-11-09T16:58:15.486Z,18.60
2022-11-09T17:01:09.244Z,18.60
2022-11-09T17:03:39.115Z,18.50
2022-11-09T17:06:12.998Z,18.60
2022-11-09T17:08:44.194Z,18.50
2022-11-09T17:11:17.701Z,18.50
2022-11-09T17:13:48.216Z,18.40
2022-11-09T17:16:22.250Z,18.40
2022-11-09T17:18:54.510Z,18.40
2022-11-09T17:21:26.622Z,18.40
2022-11-09T17:23:59.640Z,18.40
2022-11-09T17:26:30.005Z,18.40
2022-11-09T17:28:59.717Z,18.40
2022-11-09T17:31:30.192Z,18.40
2022-11-09T17:34:01.424Z,18.40
2022-11-09T17:36:57.291Z,18.40
2022-11-09T17:39:21.864Z,18.30
2022-11-09T17:41:52.540Z,18.40
2022-11-09T17:44:22.863Z,18.40
2022-11-09T17:46:52.592Z,18.40
2022-11-09T17:49:24.453Z,18.40
2022-11-09T17:51:54.876Z,18.40
2022-11-09T17:54:25.433Z,18.40
2022-11-09T17:56:55.893Z,18.40
2022-11-09T17:59:26.358Z,18.50
2022-11-09T18:01:58.281Z,18.50
2022-11-09T18:04:28.660Z,18.50
2022-11-09T18:06:59.042Z,18.50
2022-11-09T18:09:44.720Z,18.60
2022-11-09T18:12:17.953Z,18.60
2022-11-09T18:14:48.462Z,18.60
2022-11-09T18:17:18.838Z,18.60
2022-11-09T18:19:48.604Z,18.60
2022-11-09T18:22:19.036Z,18.50
2022-11-09T18:24:49.396Z,18.50
2022-11-09T18:27:19.188Z,18.40
2022-11-09T18:29:49.675Z,18.40
2022-11-09T18:32:20.079Z,18.40
2022-11-09T18:34:50.583Z,18.40
2022-11-09T18:37:20.987Z,18.40
2022-11-09T18:39:50.758Z,18.30
2022-11-09T18:42:21.706Z,18.20
2022-11-09T18:44:52.252Z,18.20
2022-11-09T18:47:29.257Z,18.10
2022-11-09T18:50:00.179Z,18.10
2022-11-09T18:52:30.514Z,18.00
2022-11-09T18:55:00.400Z,18.10
2022-11-09T18:57:30.825Z,18.00
2022-11-09T19:00:00.562Z,18.00
2022-11-09T19:02:31.030Z,17.90
2022-11-09T19:05:00.765Z,17.90
2022-11-09T19:07:31.100Z,17.90
2022-11-09T19:10:01.294Z,17.90
2022-11-09T19:12:32.447Z,17.80
2022-11-09T19:15:03.621Z,17.80
2022-11-09T19:17:34.137Z,17.70
2022-11-09T19:20:03.843Z,17.60
2022-11-09T19:22:34.772Z,17.60
2022-11-09T19:25:05.307Z,17.60
2022-11-09T19:27:35.723Z,17.60
2022-11-09T19:30:09.354Z,17.60
2022-11-09T19:32:40.160Z,17.60
2022-11-09T19:35:10.688Z,17.60
2022-11-09T19:37:42.343Z,17.60
2022-11-09T19:40:13.185Z,17.60
2022-11-09T19:42:43.595Z,17.60
2022-11-09T19:45:14.228Z,17.50
2022-11-09T19:47:43.943Z,17.50
2022-11-09T19:50:14.474Z,17.50
2022-11-09T19:52:44.199Z,17.50
2022-11-09T19:55:14.619Z,17.40
2022-11-09T19:57:44.334Z,17.40
2022-11-09T20:00:15.357Z,17.40
2022-11-09T20:02:45.713Z,17.40
2022-11-09T20:05:16.038Z,17.40
2022-11-09T20:07:46.445Z,17.30
2022-11-09T20:10:16.395Z,17.30
2022-11-09T20:12:53.933Z,17.20
2022-11-09T20:15:25.082Z,17.20
2022-11-09T20:17:55.599Z,17.20
2022-11-09T20:20:25.308Z,17.10
2022-11-09T20:22:55.675Z,17.10
2022-11-09T20:25:26.167Z,17.10
2022-11-09T20:27:55.858Z,17.10
2022-11-09T20:30:26.808Z,17.10
2022-11-09T20:32:57.253Z,17.00
2022-11-09T20:35:27.017Z,16.90
2022-11-09T20:37:57.332Z,16.90
2022-11-09T20:40:27.709Z,16.80
2022-11-09T20:42:58.225Z,16.70
2022-11-09T20:45:28.541Z,16.80
2022-11-09T20:48:10.551Z,16.70
2022-11-09T20:50:49.677Z,16.70
2022-11-09T20:53:21.228Z,16.70
2022-11-09T20:55:55.838Z,16.70
2022-11-09T20:58:27.908Z,16.70
2022-11-09T21:01:15.311Z,16.70
2022-11-09T21:03:46.462Z,16.60
2022-11-09T21:06:17.404Z,16.60
2022-11-09T21:08:52.790Z,16.50
2022-11-09T21:11:25.808Z,16.60
2022-11-09T21:13:57.318Z,16.60
2022-11-09T21:16:27.762Z,16.50
2022-11-09T21:18:58.449Z,16.50
2022-11-09T21:21:35.056Z,16.50
2022-11-09T21:24:23.592Z,16.50
2022-11-09T21:27:03.715Z,16.50
2022-11-09T21:29:43.981Z,16.50
2022-11-09T21:32:14.831Z,16.50
2022-11-09T21:34:45.375Z,16.50
2022-11-09T21:37:20.785Z,16.50
2022-11-09T21:39:51.107Z,16.50
2022-11-09T21:42:21.449Z,16.50
2022-11-09T21:44:51.894Z,16.50
2022-11-09T21:47:21.792Z,16.50
2022-11-09T21:49:52.814Z,16.50
2022-11-09T21:52:23.240Z,16.50
2022-11-09T21:54:53.664Z,16.50
2022-11-09T21:57:23.982Z,16.50
2022-11-09T21:59:54.320Z,16.40
2022-11-09T22:02:24.852Z,16.30
2022-11-09T22:04:55.190Z,16.30
2022-11-09T22:07:25.690Z,16.30
2022-11-09T22:10:11.550Z,16.30
2022-11-09T22:12:56.476Z,16.30
2022-11-09T22:15:36.613Z,16.30
2022-11-09T22:18:07.981Z,16.30
2022-11-09T22:20:56.938Z,16.30
2022-11-09T22:23:27.431Z,16.20
2022-11-09T22:25:57.145Z,16.20
2022-11-09T22:28:27.580Z,16.20
2022-11-09T22:30:57.384Z,16.20
2022-11-09T22:33:27.921Z,16.10
2022-11-09T22:36:01.234Z,16.10
2022-11-09T22:38:33.482Z,16.20
2022-11-09T22:41:08.514Z,16.10
2022-11-09T22:43:40.569Z,16.10
2022-11-09T22:46:17.476Z,16.10
2022-11-09T22:48:48.168Z,16.10
2022-11-09T22:51:20.426Z,16.10
2022-11-09T22:53:52.960Z,16.00
2022-11-09T22:56:23.487Z,16.10
2022-11-09T22:58:54.273Z,16.00
2022-11-09T23:01:24.234Z,16.00
2022-11-09T23:03:55.671Z,15.90
2022-11-09T23:06:26.710Z,16.00
2022-11-09T23:08:57.151Z,15.90
2022-11-09T23:11:27.663Z,15.90
2022-11-09T23:13:58.093Z,15.90
2022-11-09T23:16:28.740Z,15.90
2022-11-09T23:18:59.352Z,15.90
2022-11-09T23:21:31.961Z,15.90
2022-11-09T23:24:05.746Z,15.90
2022-11-09T23:26:36.923Z,15.90
2022-11-09T23:29:07.971Z,15.90
2022-11-09T23:31:38.341Z,15.80
2022-11-09T23:34:10.233Z,15.80
2022-11-09T23:36:40.715Z,15.80
2022-11-09T23:39:11.223Z,15.90
2022-11-09T23:41:40.969Z,15.90
2022-11-09T23:44:11.446Z,15.80
2022-11-09T23:46:41.904Z,15.80
2022-11-09T23:49:12.312Z,15.70
2022-11-09T23:51:43.246Z,15.70
2022-11-09T23:54:13.607Z,15.70
2022-11-09T23:56:44.100Z,15.60
2022-11-09T23:59:14.530Z,15.60
